Randolph, Utah
Current Conditions -  °F | °C
As of 4:53 AM on Tuesday 27 Jan 2015 (Local Time) from KEVW Reporting Station
Clear Clear  
Wind Chill: 26°   Ceiling: Unl
Heat Index: 34°   Visibility: 10mi
Dew Point: 25°   Wind: 10mph
Humidity: 70%   Direction: 100°E
Pressure: 30.23"   Gusts: NA
Location:  41.67°N, 111.18°W
Report Text: KEVW 271153Z AUTO 10009KT 10SM CLR 01/M04 A3023 RMK AO2 SLP205 T00111039 10044 21006 58007
Loading
Personal Weather Stations






























Interactive Weather Map New forecast layout! Learn more

10-Day Weather Forecast

Advertisements
Track Severe Weather on mobile